createdAt,value
2019-05-09T00:01:15.686Z,10.35
2019-05-09T00:03:45.541Z,10.25
2019-05-09T00:06:15.180Z,10.24
2019-05-09T00:08:45.006Z,10.18
2019-05-09T00:11:14.984Z,10.07
2019-05-09T00:13:44.688Z,10.15
2019-05-09T00:16:14.767Z,10.16
2019-05-09T00:18:44.569Z,10.15
2019-05-09T00:21:19.319Z,10.09
2019-05-09T00:23:49.126Z,10.12
2019-05-09T00:26:18.801Z,10.14
2019-05-09T00:28:53.339Z,10.00
2019-05-09T00:31:43.809Z,9.85
2019-05-09T00:34:18.956Z,9.68
2019-05-09T00:36:48.651Z,9.51
2019-05-09T00:39:18.372Z,9.44
2019-05-09T00:41:47.875Z,9.38
2019-05-09T00:44:23.313Z,9.30
2019-05-09T00:47:05.497Z,9.26
2019-05-09T00:49:34.938Z,9.27
2019-05-09T00:52:04.429Z,9.28
2019-05-09T00:54:34.048Z,9.32
2019-05-09T00:57:03.451Z,9.40
2019-05-09T00:59:33.344Z,9.50
2019-05-09T01:02:03.959Z,9.48
2019-05-09T01:04:33.691Z,9.55
2019-05-09T01:07:03.553Z,9.51
2019-05-09T01:09:33.622Z,9.55
2019-05-09T01:12:04.045Z,9.48
2019-05-09T01:14:34.167Z,9.34
2019-05-09T01:17:04.365Z,9.20
2019-05-09T01:19:34.047Z,9.08
2019-05-09T01:22:03.899Z,8.96
2019-05-09T01:24:33.929Z,8.90
2019-05-09T01:27:03.888Z,8.85
2019-05-09T01:29:33.883Z,8.80
2019-05-09T01:32:07.411Z,8.89
2019-05-09T01:34:37.445Z,8.95
2019-05-09T01:37:08.226Z,8.82
2019-05-09T01:39:38.131Z,8.76
2019-05-09T01:42:07.639Z,8.78
2019-05-09T01:44:37.040Z,8.72
2019-05-09T01:47:06.854Z,8.64
2019-05-09T01:49:36.256Z,8.68
2019-05-09T01:52:06.162Z,8.74
2019-05-09T01:54:37.699Z,8.61
2019-05-09T01:57:07.501Z,8.52
2019-05-09T01:59:36.912Z,8.23
2019-05-09T02:02:08.748Z,8.45
2019-05-09T02:04:38.533Z,8.33
2019-05-09T02:07:08.388Z,8.23
2019-05-09T02:09:38.105Z,8.17
2019-05-09T02:12:07.772Z,8.23
2019-05-09T02:14:44.165Z,8.21
2019-05-09T02:17:33.462Z,8.15
2019-05-09T02:20:04.008Z,8.15
2019-05-09T02:22:34.496Z,7.99
2019-05-09T02:25:09.331Z,7.97
2019-05-09T02:27:38.724Z,7.99
2019-05-09T02:30:10.203Z,7.83
2019-05-09T02:32:40.029Z,7.98
2019-05-09T02:35:10.200Z,8.05
2019-05-09T02:37:40.000Z,8.02
2019-05-09T02:40:10.630Z,7.98
2019-05-09T02:42:40.483Z,7.97
2019-05-09T02:45:10.653Z,7.97
2019-05-09T02:47:40.534Z,7.95
2019-05-09T02:50:10.699Z,7.82
2019-05-09T02:52:40.420Z,7.72
2019-05-09T02:55:10.871Z,7.57
2019-05-09T02:57:40.839Z,7.51
2019-05-09T03:00:20.260Z,7.50
2019-05-09T03:03:03.822Z,7.44
2019-05-09T03:05:33.553Z,7.53
2019-05-09T03:08:03.187Z,7.54
2019-05-09T03:10:32.862Z,7.48
2019-05-09T03:13:02.516Z,7.47
2019-05-09T03:15:32.843Z,7.51
2019-05-09T03:18:02.244Z,7.52
2019-05-09T03:20:53.669Z,7.47
2019-05-09T03:23:23.181Z,7.42
2019-05-09T03:25:52.895Z,7.46
2019-05-09T03:28:44.940Z,7.54
2019-05-09T03:31:19.506Z,7.65
2019-05-09T03:33:50.023Z,7.68
2019-05-09T03:36:18.745Z,7.65
2019-05-09T03:38:48.142Z,7.69
2019-05-09T03:41:17.917Z,7.72
2019-05-09T03:43:48.290Z,7.70
2019-05-09T03:46:34.417Z,7.97
2019-05-09T03:49:12.640Z,8.04
2019-05-09T03:51:42.363Z,8.05
2019-05-09T03:54:12.056Z,8.13
2019-05-09T03:56:47.815Z,8.32
2019-05-09T03:59:17.674Z,8.47
2019-05-09T04:01:50.144Z,8.73
2019-05-09T04:04:19.555Z,8.86
2019-05-09T04:06:49.369Z,8.98
2019-05-09T04:09:19.143Z,9.01
2019-05-09T04:11:48.832Z,9.12
2019-05-09T04:14:21.912Z,9.05
2019-05-09T04:16:51.644Z,9.27
2019-05-09T04:19:21.411Z,9.38
2019-05-09T04:21:51.263Z,9.42
2019-05-09T04:24:21.248Z,9.56
2019-05-09T04:26:59.185Z,9.73
2019-05-09T04:29:28.899Z,9.81
2019-05-09T04:31:58.301Z,9.88
2019-05-09T04:34:27.853Z,9.95
2019-05-09T04:36:57.875Z,9.96
2019-05-09T04:39:28.350Z,10.03
2019-05-09T04:42:03.638Z,10.18
2019-05-09T04:44:37.363Z,10.31
2019-05-09T04:47:08.781Z,10.36
2019-05-09T04:49:41.145Z,10.49
2019-05-09T04:52:09.594Z,10.65
2019-05-09T04:54:39.340Z,10.78
2019-05-09T04:57:08.873Z,10.89
2019-05-09T04:59:38.586Z,10.84
2019-05-09T05:02:27.534Z,10.81
2019-05-09T05:04:58.545Z,10.91
2019-05-09T05:07:28.847Z,10.77
2019-05-09T05:09:58.686Z,10.83
2019-05-09T05:12:28.561Z,10.83
2019-05-09T05:14:58.230Z,10.84
2019-05-09T05:17:30.486Z,10.63
2019-05-09T05:20:00.249Z,10.67
2019-05-09T05:22:47.857Z,10.79
2019-05-09T05:25:17.913Z,10.96
2019-05-09T05:27:47.602Z,11.13
2019-05-09T05:30:18.074Z,11.26
2019-05-09T05:32:57.846Z,11.40
2019-05-09T05:35:49.440Z,11.48
2019-05-09T05:38:19.137Z,11.60
2019-05-09T05:40:49.956Z,11.76
2019-05-09T05:43:19.747Z,11.84
2019-05-09T05:46:08.358Z,12.02
2019-05-09T05:48:39.335Z,12.21
2019-05-09T05:51:09.169Z,12.45
2019-05-09T05:53:38.856Z,12.64
2019-05-09T05:56:08.602Z,12.84
2019-05-09T05:58:38.703Z,12.98
2019-05-09T06:01:08.482Z,13.07
2019-05-09T06:03:38.131Z,13.13
2019-05-09T06:06:08.809Z,13.29
2019-05-09T06:08:38.406Z,13.35
2019-05-09T06:11:11.882Z,13.37
2019-05-09T06:13:53.244Z,13.39
2019-05-09T06:16:10.841Z,13.37
2019-05-09T06:18:40.609Z,13.42
2019-05-09T06:21:10.126Z,13.50
2019-05-09T06:23:39.783Z,13.58
2019-05-09T06:26:10.323Z,13.73
2019-05-09T06:28:40.119Z,13.87
2019-05-09T06:31:09.826Z,14.04
2019-05-09T06:33:46.526Z,14.02
2019-05-09T06:36:11.238Z,13.89
2019-05-09T06:38:41.017Z,14.09
2019-05-09T06:41:12.266Z,14.15
2019-05-09T06:43:43.141Z,14.30
2019-05-09T06:46:40.645Z,14.33
2019-05-09T06:49:24.346Z,14.41
2019-05-09T06:51:44.839Z,14.55
2019-05-09T06:54:14.294Z,14.63
2019-05-09T06:56:44.089Z,14.70
2019-05-09T06:59:13.695Z,14.82
2019-05-09T07:02:08.442Z,14.79
2019-05-09T07:04:54.028Z,14.83
2019-05-09T07:07:44.526Z,14.76
2019-05-09T07:10:14.574Z,15.10
2019-05-09T07:12:43.992Z,15.34
2019-05-09T07:15:13.622Z,15.48
2019-05-09T07:17:43.276Z,15.61
2019-05-09T07:20:13.070Z,15.65
2019-05-09T07:22:48.125Z,15.87
2019-05-09T07:25:47.834Z,16.09
2019-05-09T07:28:18.115Z,16.28
2019-05-09T07:31:11.683Z,16.48
2019-05-09T07:34:03.086Z,16.69
2019-05-09T07:36:32.648Z,16.80
2019-05-09T07:39:02.419Z,16.90
2019-05-09T07:41:33.737Z,16.90
2019-05-09T07:44:03.605Z,16.93
2019-05-09T07:46:34.739Z,16.87
2019-05-09T07:49:08.627Z,16.98
2019-05-09T07:51:38.340Z,16.94
2019-05-09T07:54:20.646Z,16.96
2019-05-09T07:56:39.533Z,16.99
2019-05-09T07:59:09.196Z,17.10
2019-05-09T08:01:38.815Z,17.22
2019-05-09T08:04:08.545Z,17.37
2019-05-09T08:06:38.181Z,17.56
2019-05-09T08:09:08.647Z,17.66
2019-05-09T08:11:41.209Z,17.83
2019-05-09T08:14:11.416Z,17.88
2019-05-09T08:16:41.017Z,18.05
2019-05-09T08:19:11.497Z,18.24
2019-05-09T08:21:41.703Z,18.48
2019-05-09T08:24:11.925Z,18.62
2019-05-09T08:26:41.823Z,18.65
2019-05-09T08:29:11.662Z,18.76
2019-05-09T08:31:41.448Z,18.68
2019-05-09T08:34:11.291Z,18.82
2019-05-09T08:36:40.829Z,18.93
2019-05-09T08:39:10.444Z,19.16
2019-05-09T08:41:40.178Z,19.30
2019-05-09T08:44:10.049Z,19.52
2019-05-09T08:46:39.806Z,19.71
2019-05-09T08:49:09.655Z,19.86
2019-05-09T08:51:55.662Z,19.93
2019-05-09T08:54:34.793Z,19.77
2019-05-09T08:57:04.323Z,19.94
2019-05-09T08:59:34.186Z,20.11
2019-05-09T09:02:15.726Z,20.24
2019-05-09T09:04:38.157Z,20.44
2019-05-09T09:07:08.365Z,20.77
2019-05-09T09:09:38.350Z,21.09
2019-05-09T09:12:25.229Z,21.53
2019-05-09T09:14:39.845Z,22.05
2019-05-09T09:17:09.591Z,22.49
2019-05-09T09:19:39.330Z,23.09
2019-05-09T09:22:09.217Z,23.72
2019-05-09T09:24:39.046Z,24.49
2019-05-09T09:27:08.878Z,25.42
2019-05-09T09:29:38.680Z,26.02
2019-05-09T09:32:08.637Z,26.70
2019-05-09T09:34:38.618Z,27.01
2019-05-09T09:37:11.472Z,27.48
2019-05-09T09:39:44.559Z,27.85
2019-05-09T09:42:11.425Z,28.44
2019-05-09T09:44:41.089Z,28.98
2019-05-09T09:47:11.152Z,29.67
2019-05-09T09:49:40.755Z,29.80
2019-05-09T09:52:10.739Z,30.52
2019-05-09T09:54:40.287Z,30.83
2019-05-09T09:57:10.198Z,30.43
2019-05-09T09:59:48.460Z,30.31
2019-05-09T10:02:19.848Z,29.82
2019-05-09T10:04:49.755Z,27.96
2019-05-09T10:07:19.641Z,27.96
2019-05-09T10:09:49.680Z,27.17
2019-05-09T10:12:19.294Z,26.31
2019-05-09T10:14:58.802Z,25.78
2019-05-09T10:17:49.804Z,25.90
2019-05-09T10:20:32.860Z,26.13
2019-05-09T10:23:11.037Z,25.72
2019-05-09T10:25:34.212Z,24.73
2019-05-09T10:28:04.140Z,24.88
2019-05-09T10:30:38.008Z,24.46
2019-05-09T10:33:09.243Z,24.47
2019-05-09T10:35:39.159Z,24.46
2019-05-09T10:38:09.224Z,24.37
2019-05-09T10:40:40.360Z,24.92
2019-05-09T10:43:33.985Z,25.40
2019-05-09T10:46:19.335Z,26.10
2019-05-09T10:48:54.959Z,26.90
2019-05-09T10:51:24.571Z,28.01
2019-05-09T10:53:54.370Z,28.85
2019-05-09T10:56:24.195Z,29.55
2019-05-09T10:58:53.981Z,30.20
2019-05-09T11:01:23.519Z,29.93
2019-05-09T11:03:53.273Z,28.96
2019-05-09T11:06:22.869Z,28.86
2019-05-09T11:08:52.594Z,28.93
2019-05-09T11:11:22.614Z,29.13
2019-05-09T11:13:52.160Z,29.15
2019-05-09T11:16:22.061Z,29.86
2019-05-09T11:18:51.771Z,29.59
2019-05-09T11:21:21.584Z,29.51
2019-05-09T11:23:51.116Z,30.17
2019-05-09T11:26:20.639Z,31.30
2019-05-09T11:28:50.508Z,32.29
2019-05-09T11:31:20.563Z,33.06
2019-05-09T11:33:50.463Z,33.60
2019-05-09T11:36:21.218Z,33.73
2019-05-09T11:38:51.183Z,33.69
2019-05-09T11:41:21.057Z,34.24
2019-05-09T11:43:52.084Z,34.95
2019-05-09T11:46:21.762Z,34.94
2019-05-09T11:48:51.289Z,34.44
2019-05-09T11:51:22.881Z,33.15
2019-05-09T11:53:52.111Z,33.78
2019-05-09T11:56:22.004Z,32.92
2019-05-09T11:58:51.488Z,32.85
2019-05-09T12:01:21.054Z,33.03
2019-05-09T12:03:52.390Z,32.80
2019-05-09T12:06:22.366Z,32.55
2019-05-09T12:08:51.851Z,32.79
2019-05-09T12:11:21.266Z,32.82
2019-05-09T12:13:50.685Z,32.44
2019-05-09T12:16:20.560Z,31.51
2019-05-09T12:18:50.256Z,30.92
2019-05-09T12:21:19.968Z,29.90
2019-05-09T12:23:50.065Z,30.61
2019-05-09T12:26:19.617Z,30.76
2019-05-09T12:28:49.492Z,30.13
2019-05-09T12:31:19.198Z,29.16
2019-05-09T12:33:48.749Z,28.81
2019-05-09T12:36:19.142Z,28.50
2019-05-09T12:38:50.224Z,28.29
2019-05-09T12:41:20.208Z,27.96
2019-05-09T12:43:50.003Z,27.47
2019-05-09T12:46:19.746Z,26.90
2019-05-09T12:48:49.572Z,27.03
2019-05-09T12:51:19.351Z,26.66
2019-05-09T12:53:49.138Z,26.54
2019-05-09T12:56:18.970Z,26.37
2019-05-09T12:58:48.734Z,26.12
2019-05-09T13:01:19.018Z,25.85
2019-05-09T13:03:48.771Z,25.43
2019-05-09T13:06:19.955Z,24.89
2019-05-09T13:08:50.277Z,24.70
2019-05-09T13:11:20.262Z,24.34
2019-05-09T13:13:50.095Z,23.85
2019-05-09T13:16:49.030Z,23.42
2019-05-09T13:19:14.847Z,23.34
2019-05-09T13:21:44.250Z,23.06
2019-05-09T13:24:13.720Z,22.73
2019-05-09T13:26:44.874Z,22.50
2019-05-09T13:29:14.666Z,22.37
2019-05-09T13:31:44.367Z,22.21
2019-05-09T13:34:14.237Z,22.06
2019-05-09T13:36:44.160Z,21.85
2019-05-09T13:39:13.898Z,21.65
2019-05-09T13:41:43.689Z,21.58
2019-05-09T13:44:14.140Z,21.60
2019-05-09T13:46:44.196Z,21.51
2019-05-09T13:49:15.600Z,21.48
2019-05-09T13:51:51.031Z,21.55
2019-05-09T13:54:18.472Z,21.54
2019-05-09T13:56:54.978Z,21.42
2019-05-09T13:59:19.927Z,21.26
2019-05-09T14:01:49.713Z,21.09
2019-05-09T14:04:19.276Z,20.88
2019-05-09T14:06:49.099Z,20.69
2019-05-09T14:09:20.144Z,20.55
2019-05-09T14:11:49.994Z,20.50
2019-05-09T14:14:19.588Z,20.58
2019-05-09T14:16:49.330Z,20.57
2019-05-09T14:19:38.592Z,20.49
2019-05-09T14:21:50.014Z,20.37
2019-05-09T14:24:19.558Z,20.00
2019-05-09T14:26:49.219Z,19.70
2019-05-09T14:29:20.467Z,19.46
2019-05-09T14:31:50.553Z,19.31
2019-05-09T14:34:20.327Z,19.24
2019-05-09T14:36:50.118Z,19.35
2019-05-09T14:39:19.829Z,19.50
2019-05-09T14:41:49.559Z,19.65
2019-05-09T14:44:19.004Z,19.84
2019-05-09T14:46:48.898Z,19.84
2019-05-09T14:49:18.778Z,19.98
2019-05-09T14:51:49.982Z,20.02
2019-05-09T14:54:19.989Z,20.14
2019-05-09T14:56:49.955Z,20.19
2019-05-09T14:59:19.749Z,20.23
2019-05-09T15:01:49.794Z,20.20
2019-05-09T15:04:19.623Z,20.23
2019-05-09T15:06:49.449Z,20.11
2019-05-09T15:09:18.954Z,20.04
2019-05-09T15:11:48.860Z,19.77
2019-05-09T15:14:18.419Z,19.53
2019-05-09T15:16:48.682Z,19.30
2019-05-09T15:19:18.668Z,19.14
2019-05-09T15:21:48.984Z,19.01
2019-05-09T15:24:19.318Z,18.90
2019-05-09T15:26:49.405Z,18.80
2019-05-09T15:29:18.841Z,18.67
2019-05-09T15:31:54.749Z,18.55
2019-05-09T15:34:19.918Z,18.44
2019-05-09T15:36:49.333Z,18.32
2019-05-09T15:39:18.763Z,18.25
2019-05-09T15:41:48.300Z,18.25
2019-05-09T15:44:18.642Z,18.24
2019-05-09T15:46:52.739Z,18.29
2019-05-09T15:49:22.159Z,17.84
2019-05-09T15:51:51.685Z,17.60
2019-05-09T15:54:21.188Z,17.72
2019-05-09T15:56:50.993Z,17.76
2019-05-09T15:59:20.650Z,17.68
2019-05-09T16:01:50.448Z,17.99
2019-05-09T16:04:20.336Z,17.93
2019-05-09T16:06:51.621Z,17.84
2019-05-09T16:09:21.566Z,17.96
2019-05-09T16:11:51.323Z,17.81
2019-05-09T16:14:21.077Z,17.77
2019-05-09T16:16:50.785Z,17.79
2019-05-09T16:19:20.576Z,17.92
2019-05-09T16:21:50.366Z,18.06
2019-05-09T16:24:19.812Z,18.02
2019-05-09T16:26:50.016Z,18.05
2019-05-09T16:29:19.517Z,17.94
2019-05-09T16:31:49.145Z,17.81
2019-05-09T16:34:18.978Z,17.86
2019-05-09T16:36:48.786Z,17.88
2019-05-09T16:39:18.433Z,17.47
2019-05-09T16:41:48.784Z,17.59
2019-05-09T16:44:18.726Z,17.59
2019-05-09T16:46:48.798Z,17.63
2019-05-09T16:49:19.818Z,17.55
2019-05-09T16:51:49.965Z,17.50
2019-05-09T16:54:20.176Z,17.64
2019-05-09T16:56:49.952Z,17.69
2019-05-09T16:59:19.807Z,17.58
2019-05-09T17:01:50.404Z,17.33
2019-05-09T17:04:20.270Z,17.21
2019-05-09T17:06:50.028Z,16.99
2019-05-09T17:09:19.872Z,17.31
2019-05-09T17:11:49.671Z,17.28
2019-05-09T17:14:19.586Z,17.11
2019-05-09T17:16:52.650Z,17.02
2019-05-09T17:19:20.912Z,17.03
2019-05-09T17:21:59.596Z,17.09
2019-05-09T17:24:29.929Z,17.12
2019-05-09T17:26:59.797Z,16.98
2019-05-09T17:29:29.687Z,16.80
2019-05-09T17:31:59.448Z,16.96
2019-05-09T17:34:29.250Z,17.01
2019-05-09T17:36:58.945Z,16.92
2019-05-09T17:39:28.830Z,16.78
2019-05-09T17:41:58.735Z,16.50
2019-05-09T17:44:28.314Z,16.53
2019-05-09T17:46:58.274Z,16.58
2019-05-09T17:49:28.232Z,16.48
2019-05-09T17:51:58.573Z,16.48
2019-05-09T17:54:28.917Z,16.14
2019-05-09T17:56:58.681Z,16.21
2019-05-09T17:59:29.291Z,16.12
2019-05-09T18:01:58.896Z,15.93
2019-05-09T18:04:28.993Z,16.11
2019-05-09T18:06:58.859Z,16.18
2019-05-09T18:09:28.864Z,16.17
2019-05-09T18:11:58.665Z,16.25
2019-05-09T18:14:28.439Z,16.17
2019-05-09T18:16:58.388Z,15.99
2019-05-09T18:19:29.327Z,15.81
2019-05-09T18:21:59.753Z,15.73
2019-05-09T18:24:29.431Z,15.68
2019-05-09T18:26:59.126Z,15.49
2019-05-09T18:29:28.978Z,15.48
2019-05-09T18:32:08.796Z,15.60
2019-05-09T18:34:38.247Z,15.62
2019-05-09T18:37:08.197Z,15.56
2019-05-09T18:39:38.128Z,15.53
2019-05-09T18:42:08.809Z,15.49
2019-05-09T18:44:38.604Z,15.42
2019-05-09T18:47:08.025Z,15.35
2019-05-09T18:49:37.883Z,15.30
2019-05-09T18:52:07.793Z,15.45
2019-05-09T18:54:37.650Z,15.44
2019-05-09T18:57:07.346Z,15.48
2019-05-09T18:59:36.797Z,15.43
2019-05-09T19:02:06.747Z,15.32
2019-05-09T19:04:36.523Z,15.25
2019-05-09T19:07:21.314Z,15.25
2019-05-09T19:09:37.748Z,15.23
2019-05-09T19:12:07.481Z,15.29
2019-05-09T19:14:37.341Z,15.34
2019-05-09T19:17:29.203Z,15.28
2019-05-09T19:20:16.589Z,15.29
2019-05-09T19:22:46.411Z,15.30
2019-05-09T19:25:16.507Z,15.17
2019-05-09T19:27:46.386Z,15.22
2019-05-09T19:30:15.894Z,15.19
2019-05-09T19:32:45.309Z,15.34
2019-05-09T19:35:15.388Z,15.36
2019-05-09T19:37:45.155Z,15.31
2019-05-09T19:40:20.019Z,15.43
2019-05-09T19:42:46.645Z,15.38
2019-05-09T19:45:17.082Z,15.34
2019-05-09T19:47:46.597Z,15.30
2019-05-09T19:50:16.608Z,15.32
2019-05-09T19:52:46.307Z,15.36
2019-05-09T19:55:15.838Z,15.23
2019-05-09T19:57:45.457Z,15.12
2019-05-09T20:00:17.343Z,14.92
2019-05-09T20:02:46.880Z,14.94
2019-05-09T20:05:17.055Z,14.92
2019-05-09T20:07:46.479Z,15.03
2019-05-09T20:10:44.416Z,15.02
2019-05-09T20:13:38.902Z,14.95
2019-05-09T20:16:08.803Z,14.86
2019-05-09T20:18:38.240Z,14.77
2019-05-09T20:21:07.659Z,14.75
2019-05-09T20:23:37.425Z,14.73
2019-05-09T20:26:07.007Z,14.59
2019-05-09T20:28:36.717Z,14.44
2019-05-09T20:31:06.457Z,14.59
2019-05-09T20:33:36.241Z,14.62
2019-05-09T20:36:06.026Z,14.63
2019-05-09T20:38:35.908Z,14.60
2019-05-09T20:41:05.583Z,14.60
2019-05-09T20:43:35.462Z,14.54
2019-05-09T20:46:05.389Z,14.56
2019-05-09T20:48:35.241Z,14.55
2019-05-09T20:51:05.045Z,14.50
2019-05-09T20:53:34.638Z,14.49
2019-05-09T20:56:04.743Z,14.46
2019-05-09T20:58:34.766Z,14.33
2019-05-09T21:01:04.770Z,14.30
2019-05-09T21:03:34.551Z,14.26
2019-05-09T21:06:04.176Z,14.23
2019-05-09T21:08:34.617Z,14.18
2019-05-09T21:11:04.318Z,14.24
2019-05-09T21:13:47.325Z,14.26
2019-05-09T21:16:06.053Z,14.29
2019-05-09T21:18:35.818Z,14.22
2019-05-09T21:21:05.918Z,14.17
2019-05-09T21:23:35.951Z,14.08
2019-05-09T21:26:05.961Z,13.94
2019-05-09T21:28:35.643Z,14.13
2019-05-09T21:31:05.456Z,14.05
2019-05-09T21:33:35.463Z,14.16
2019-05-09T21:36:05.215Z,14.27
2019-05-09T21:38:34.702Z,14.18
2019-05-09T21:41:04.488Z,14.30
2019-05-09T21:43:34.013Z,14.38
2019-05-09T21:46:03.507Z,14.07
2019-05-09T21:48:33.246Z,14.21
2019-05-09T21:51:02.753Z,14.32
2019-05-09T21:53:40.450Z,14.34
2019-05-09T21:56:04.108Z,14.04
2019-05-09T21:58:33.824Z,14.22
2019-05-09T22:01:04.054Z,14.29
2019-05-09T22:03:33.763Z,14.35
2019-05-09T22:06:03.392Z,14.33
2019-05-09T22:08:32.851Z,14.07
2019-05-09T22:11:02.302Z,13.97
2019-05-09T22:13:32.031Z,13.97
2019-05-09T22:16:01.780Z,14.03
2019-05-09T22:18:31.496Z,13.87
2019-05-09T22:21:00.989Z,13.99
2019-05-09T22:23:30.852Z,14.22
2019-05-09T22:26:00.726Z,14.21
2019-05-09T22:28:30.151Z,14.17
2019-05-09T22:30:59.575Z,14.14
2019-05-09T22:33:29.260Z,14.12
2019-05-09T22:35:58.767Z,14.13
2019-05-09T22:38:28.195Z,14.08
2019-05-09T22:40:58.050Z,14.05
2019-05-09T22:43:27.654Z,14.13
2019-05-09T22:45:57.433Z,14.08
2019-05-09T22:48:27.188Z,14.11
2019-05-09T22:50:56.728Z,14.17
2019-05-09T22:53:26.274Z,14.18
2019-05-09T22:55:56.094Z,14.16
2019-05-09T22:58:25.927Z,14.14
2019-05-09T23:00:55.728Z,14.10
2019-05-09T23:03:25.318Z,13.91
2019-05-09T23:05:54.832Z,13.98
2019-05-09T23:08:24.345Z,14.04
2019-05-09T23:10:54.099Z,14.01
2019-05-09T23:13:23.755Z,14.10
2019-05-09T23:15:53.622Z,14.08
2019-05-09T23:18:23.391Z,14.07
2019-05-09T23:20:55.624Z,13.93
2019-05-09T23:23:38.382Z,13.84
2019-05-09T23:26:08.289Z,13.95
2019-05-09T23:28:37.712Z,13.94
2019-05-09T23:31:11.503Z,13.83
2019-05-09T23:33:42.443Z,13.75
2019-05-09T23:36:11.937Z,13.90
2019-05-09T23:39:00.704Z,13.78
2019-05-09T23:41:30.454Z,13.88
2019-05-09T23:44:00.221Z,13.79
2019-05-09T23:46:29.718Z,13.78
2019-05-09T23:48:59.510Z,13.76
2019-05-09T23:51:45.040Z,13.92
2019-05-09T23:54:45.226Z,13.93
2019-05-09T23:57:24.075Z,13.97
